sensor_id;sensor_type;location;lat;lon;timestamp;temperature;humidity
8109;DHT22;4097;47.812;12.374;2022-10-30T00:00:36;13.40;99.90
8109;DHT22;4097;47.812;12.374;2022-10-30T00:03:04;13.40;99.90
8109;DHT22;4097;47.812;12.374;2022-10-30T00:05:31;13.40;99.90
8109;DHT22;4097;47.812;12.374;2022-10-30T00:08:09;13.30;99.90
8109;DHT22;4097;47.812;12.374;2022-10-30T00:10:36;13.40;99.90
8109;DHT22;4097;47.812;12.374;2022-10-30T00:13:03;13.30;99.90
8109;DHT22;4097;47.812;12.374;2022-10-30T00:15:30;13.30;99.90
8109;DHT22;4097;47.812;12.374;2022-10-30T00:17:59;13.30;99.90
8109;DHT22;4097;47.812;12.374;2022-10-30T00:20:26;13.30;99.90
8109;DHT22;4097;47.812;12.374;2022-10-30T00:22:54;13.30;99.90
8109;DHT22;4097;47.812;12.374;2022-10-30T00:25:22;13.30;99.90
8109;DHT22;4097;47.812;12.374;2022-10-30T00:27:52;13.30;99.90
8109;DHT22;4097;47.812;12.374;2022-10-30T00:30:19;13.20;99.90
8109;DHT22;4097;47.812;12.374;2022-10-30T00:32:46;13.20;99.90
8109;DHT22;4097;47.812;12.374;2022-10-30T00:35:13;13.20;99.90
8109;DHT22;4097;47.812;12.374;2022-10-30T00:37:46;13.20;99.90
8109;DHT22;4097;47.812;12.374;2022-10-30T00:40:13;13.20;99.90
8109;DHT22;4097;47.812;12.374;2022-10-30T00:42:43;13.20;99.90
8109;DHT22;4097;47.812;12.374;2022-10-30T00:45:11;13.20;99.90
8109;DHT22;4097;47.812;12.374;2022-10-30T00:47:47;13.20;99.90
8109;DHT22;4097;47.812;12.374;2022-10-30T00:50:19;13.20;99.90
8109;DHT22;4097;47.812;12.374;2022-10-30T00:52:49;13.20;99.90
8109;DHT22;4097;47.812;12.374;2022-10-30T00:55:21;13.20;99.90
8109;DHT22;4097;47.812;12.374;2022-10-30T00:57:56;13.20;99.90
8109;DHT22;4097;47.812;12.374;2022-10-30T01:00:26;13.10;99.90
8109;DHT22;4097;47.812;12.374;2022-10-30T01:02:55;13.10;99.90
8109;DHT22;4097;47.812;12.374;2022-10-30T01:05:24;13.10;99.90
8109;DHT22;4097;47.812;12.374;2022-10-30T01:07:55;13.00;99.90
8109;DHT22;4097;47.812;12.374;2022-10-30T01:10:22;13.00;99.90
8109;DHT22;4097;47.812;12.374;2022-10-30T01:12:52;12.90;99.90
8109;DHT22;4097;47.812;12.374;2022-10-30T01:15:25;12.90;99.90
8109;DHT22;4097;47.812;12.374;2022-10-30T01:21:32;12.90;99.90
8109;DHT22;4097;47.812;12.374;2022-10-30T01:24:17;12.90;99.90
8109;DHT22;4097;47.812;12.374;2022-10-30T01:27:03;12.80;99.90
8109;DHT22;4097;47.812;12.374;2022-10-30T01:29:44;12.80;99.90
8109;DHT22;4097;47.812;12.374;2022-10-30T01:32:22;12.80;99.90
8109;DHT22;4097;47.812;12.374;2022-10-30T01:34:58;12.80;99.90
8109;DHT22;4097;47.812;12.374;2022-10-30T01:37:38;12.70;99.90
8109;DHT22;4097;47.812;12.374;2022-10-30T01:40:10;12.70;99.90
8109;DHT22;4097;47.812;12.374;2022-10-30T01:42:44;12.70;99.90
8109;DHT22;4097;47.812;12.374;2022-10-30T01:45:15;12.70;99.90
8109;DHT22;4097;47.812;12.374;2022-10-30T01:48:04;12.70;99.90
8109;DHT22;4097;47.812;12.374;2022-10-30T01:50:39;12.70;99.90
8109;DHT22;4097;47.812;12.374;2022-10-30T01:53:15;12.80;99.90
8109;DHT22;4097;47.812;12.374;2022-10-30T01:55:52;12.80;99.90
8109;DHT22;4097;47.812;12.374;2022-10-30T01:58:29;12.80;99.90
8109;DHT22;4097;47.812;12.374;2022-10-30T02:01:00;12.80;99.90
8109;DHT22;4097;47.812;12.374;2022-10-30T02:03:29;12.80;99.90
8109;DHT22;4097;47.812;12.374;2022-10-30T02:05:56;12.90;99.90
8109;DHT22;4097;47.812;12.374;2022-10-30T02:08:26;12.80;99.90
8109;DHT22;4097;47.812;12.374;2022-10-30T02:10:54;12.90;99.90
8109;DHT22;4097;47.812;12.374;2022-10-30T02:13:21;12.90;99.90
8109;DHT22;4097;47.812;12.374;2022-10-30T02:15:49;12.90;99.90
8109;DHT22;4097;47.812;12.374;2022-10-30T02:18:19;12.90;99.90
8109;DHT22;4097;47.812;12.374;2022-10-30T02:20:47;12.90;99.90
8109;DHT22;4097;47.812;12.374;2022-10-30T02:23:14;12.80;99.90
8109;DHT22;4097;47.812;12.374;2022-10-30T02:25:43;12.80;99.90
8109;DHT22;4097;47.812;12.374;2022-10-30T02:28:16;12.80;99.90
8109;DHT22;4097;47.812;12.374;2022-10-30T02:30:43;12.80;99.90
8109;DHT22;4097;47.812;12.374;2022-10-30T02:33:10;12.80;99.90
8109;DHT22;4097;47.812;12.374;2022-10-30T02:35:37;12.80;99.90
8109;DHT22;4097;47.812;12.374;2022-10-30T02:38:08;12.70;99.90
8109;DHT22;4097;47.812;12.374;2022-10-30T02:40:35;12.70;99.90
8109;DHT22;4097;47.812;12.374;2022-10-30T02:43:02;12.70;99.90
8109;DHT22;4097;47.812;12.374;2022-10-30T02:45:29;12.70;99.90
8109;DHT22;4097;47.812;12.374;2022-10-30T02:47:59;12.70;99.90
8109;DHT22;4097;47.812;12.374;2022-10-30T02:50:26;12.60;99.90
8109;DHT22;4097;47.812;12.374;2022-10-30T02:52:53;12.60;99.90
8109;DHT22;4097;47.812;12.374;2022-10-30T02:55:22;12.70;99.90
8109;DHT22;4097;47.812;12.374;2022-10-30T02:57:53;12.70;99.90
8109;DHT22;4097;47.812;12.374;2022-10-30T03:00:20;12.70;99.90
8109;DHT22;4097;47.812;12.374;2022-10-30T03:02:53;12.70;99.90
8109;DHT22;4097;47.812;12.374;2022-10-30T03:05:20;12.70;99.90
8109;DHT22;4097;47.812;12.374;2022-10-30T03:07:53;12.70;99.90
8109;DHT22;4097;47.812;12.374;2022-10-30T03:10:22;12.70;99.90
8109;DHT22;4097;47.812;12.374;2022-10-30T03:12:49;12.70;99.90
8109;DHT22;4097;47.812;12.374;2022-10-30T03:15:16;12.70;99.90
8109;DHT22;4097;47.812;12.374;2022-10-30T03:17:49;12.70;99.90
8109;DHT22;4097;47.812;12.374;2022-10-30T03:20:17;12.70;99.90
8109;DHT22;4097;47.812;12.374;2022-10-30T03:22:44;12.70;99.90
8109;DHT22;4097;47.812;12.374;2022-10-30T03:25:11;12.70;99.90
8109;DHT22;4097;47.812;12.374;2022-10-30T03:27:45;12.70;99.90
8109;DHT22;4097;47.812;12.374;2022-10-30T03:30:13;12.70;99.90
8109;DHT22;4097;47.812;12.374;2022-10-30T03:32:40;12.70;99.90
8109;DHT22;4097;47.812;12.374;2022-10-30T03:35:07;12.70;99.90
8109;DHT22;4097;47.812;12.374;2022-10-30T03:37:40;12.70;99.90
8109;DHT22;4097;47.812;12.374;2022-10-30T03:40:08;12.70;99.90
8109;DHT22;4097;47.812;12.374;2022-10-30T03:42:38;12.60;99.90
8109;DHT22;4097;47.812;12.374;2022-10-30T03:45:08;12.60;99.90
8109;DHT22;4097;47.812;12.374;2022-10-30T03:47:44;12.60;99.90
8109;DHT22;4097;47.812;12.374;2022-10-30T03:50:11;12.60;99.90
8109;DHT22;4097;47.812;12.374;2022-10-30T03:52:38;12.60;99.90
8109;DHT22;4097;47.812;12.374;2022-10-30T03:55:06;12.50;99.90
8109;DHT22;4097;47.812;12.374;2022-10-30T03:57:39;12.50;99.90
8109;DHT22;4097;47.812;12.374;2022-10-30T04:00:09;12.40;99.90
8109;DHT22;4097;47.812;12.374;2022-10-30T04:02:37;12.40;99.90
8109;DHT22;4097;47.812;12.374;2022-10-30T04:05:04;12.30;99.90
8109;DHT22;4097;47.812;12.374;2022-10-30T04:07:37;12.30;99.90
8109;DHT22;4097;47.812;12.374;2022-10-30T04:10:04;12.40;99.90
8109;DHT22;4097;47.812;12.374;2022-10-30T04:12:31;12.30;99.90
8109;DHT22;4097;47.812;12.374;2022-10-30T04:14:58;12.30;99.90
8109;DHT22;4097;47.812;12.374;2022-10-30T04:17:33;12.30;99.90
8109;DHT22;4097;47.812;12.374;2022-10-30T04:20:00;12.40;99.90
8109;DHT22;4097;47.812;12.374;2022-10-30T04:22:27;12.40;99.90
8109;DHT22;4097;47.812;12.374;2022-10-30T04:24:54;12.40;99.90
8109;DHT22;4097;47.812;12.374;2022-10-30T04:27:23;12.40;99.90
8109;DHT22;4097;47.812;12.374;2022-10-30T04:29:50;12.30;99.90
8109;DHT22;4097;47.812;12.374;2022-10-30T04:32:17;12.30;99.90
8109;DHT22;4097;47.812;12.374;2022-10-30T04:34:47;12.30;99.90
8109;DHT22;4097;47.812;12.374;2022-10-30T04:37:23;12.30;99.90
8109;DHT22;4097;47.812;12.374;2022-10-30T04:39:50;12.30;99.90
8109;DHT22;4097;47.812;12.374;2022-10-30T04:42:17;12.30;99.90
8109;DHT22;4097;47.812;12.374;2022-10-30T04:44:44;12.30;99.90
8109;DHT22;4097;47.812;12.374;2022-10-30T04:47:23;12.30;99.90
8109;DHT22;4097;47.812;12.374;2022-10-30T04:49:51;12.30;99.90
8109;DHT22;4097;47.812;12.374;2022-10-30T04:52:18;12.30;99.90
8109;DHT22;4097;47.812;12.374;2022-10-30T04:54:45;12.30;99.90
8109;DHT22;4097;47.812;12.374;2022-10-30T04:57:18;12.30;99.90
8109;DHT22;4097;47.812;12.374;2022-10-30T04:59:45;12.40;99.90
8109;DHT22;4097;47.812;12.374;2022-10-30T05:02:12;12.40;99.90
8109;DHT22;4097;47.812;12.374;2022-10-30T05:04:39;12.40;99.90
8109;DHT22;4097;47.812;12.374;2022-10-30T05:07:13;12.40;99.90
8109;DHT22;4097;47.812;12.374;2022-10-30T05:09:41;12.40;99.90
8109;DHT22;4097;47.812;12.374;2022-10-30T05:12:09;12.40;99.90
8109;DHT22;4097;47.812;12.374;2022-10-30T05:14:36;12.40;99.90
8109;DHT22;4097;47.812;12.374;2022-10-30T05:17:09;12.30;99.90
8109;DHT22;4097;47.812;12.374;2022-10-30T05:19:36;12.30;99.90
8109;DHT22;4097;47.812;12.374;2022-10-30T05:22:03;12.40;99.90
8109;DHT22;4097;47.812;12.374;2022-10-30T05:24:32;12.40;99.90
8109;DHT22;4097;47.812;12.374;2022-10-30T05:27:04;12.40;99.90
8109;DHT22;4097;47.812;12.374;2022-10-30T05:29:31;12.40;99.90
8109;DHT22;4097;47.812;12.374;2022-10-30T05:31:58;12.40;99.90
8109;DHT22;4097;47.812;12.374;2022-10-30T05:34:25;12.40;99.90
8109;DHT22;4097;47.812;12.374;2022-10-30T05:36:58;12.50;99.90
8109;DHT22;4097;47.812;12.374;2022-10-30T05:39:26;12.50;99.90
8109;DHT22;4097;47.812;12.374;2022-10-30T05:41:54;12.50;99.90
8109;DHT22;4097;47.812;12.374;2022-10-30T05:44:21;12.50;99.90
8109;DHT22;4097;47.812;12.374;2022-10-30T05:46:54;12.50;99.90
8109;DHT22;4097;47.812;12.374;2022-10-30T05:49:21;12.50;99.90
8109;DHT22;4097;47.812;12.374;2022-10-30T05:51:48;12.50;99.90
8109;DHT22;4097;47.812;12.374;2022-10-30T05:54:15;12.50;99.90
8109;DHT22;4097;47.812;12.374;2022-10-30T05:57:08;12.50;99.90
8109;DHT22;4097;47.812;12.374;2022-10-30T05:59:36;12.40;99.90
8109;DHT22;4097;47.812;12.374;2022-10-30T06:02:03;12.40;99.90
8109;DHT22;4097;47.812;12.374;2022-10-30T06:04:31;12.40;99.90
8109;DHT22;4097;47.812;12.374;2022-10-30T06:07:05;12.30;99.90
8109;DHT22;4097;47.812;12.374;2022-10-30T06:09:32;12.30;99.90
8109;DHT22;4097;47.812;12.374;2022-10-30T06:11:59;12.30;99.90
8109;DHT22;4097;47.812;12.374;2022-10-30T06:14:27;12.30;99.90
8109;DHT22;4097;47.812;12.374;2022-10-30T06:17:00;12.30;99.90
8109;DHT22;4097;47.812;12.374;2022-10-30T06:19:28;12.30;99.90
8109;DHT22;4097;47.812;12.374;2022-10-30T06:21:56;12.30;99.90
8109;DHT22;4097;47.812;12.374;2022-10-30T06:24:23;12.30;99.90
8109;DHT22;4097;47.812;12.374;2022-10-30T06:26:56;12.30;99.90
8109;DHT22;4097;47.812;12.374;2022-10-30T06:29:23;12.30;99.90
8109;DHT22;4097;47.812;12.374;2022-10-30T06:31:54;12.20;99.90
8109;DHT22;4097;47.812;12.374;2022-10-30T06:34:20;12.20;99.90
8109;DHT22;4097;47.812;12.374;2022-10-30T06:36:56;12.30;99.90
8109;DHT22;4097;47.812;12.374;2022-10-30T06:39:24;12.30;99.90
8109;DHT22;4097;47.812;12.374;2022-10-30T06:41:51;12.30;99.90
8109;DHT22;4097;47.812;12.374;2022-10-30T06:44:18;12.30;99.90
8109;DHT22;4097;47.812;12.374;2022-10-30T06:46:51;12.40;99.90
8109;DHT22;4097;47.812;12.374;2022-10-30T06:49:20;12.40;99.90
8109;DHT22;4097;47.812;12.374;2022-10-30T06:51:47;12.50;99.90
8109;DHT22;4097;47.812;12.374;2022-10-30T06:54:16;12.50;99.90
8109;DHT22;4097;47.812;12.374;2022-10-30T06:56:49;12.60;99.90
8109;DHT22;4097;47.812;12.374;2022-10-30T06:59:17;12.60;99.90
8109;DHT22;4097;47.812;12.374;2022-10-30T07:01:43;12.60;99.90
8109;DHT22;4097;47.812;12.374;2022-10-30T07:04:10;12.60;99.90
8109;DHT22;4097;47.812;12.374;2022-10-30T07:06:39;12.70;99.90
8109;DHT22;4097;47.812;12.374;2022-10-30T07:09:09;12.70;99.90
8109;DHT22;4097;47.812;12.374;2022-10-30T07:11:36;12.70;99.90
8109;DHT22;4097;47.812;12.374;2022-10-30T07:14:04;12.80;99.90
8109;DHT22;4097;47.812;12.374;2022-10-30T07:16:31;12.80;99.90
8109;DHT22;4097;47.812;12.374;2022-10-30T07:19:01;12.90;99.90
8109;DHT22;4097;47.812;12.374;2022-10-30T07:21:28;13.00;99.90
8109;DHT22;4097;47.812;12.374;2022-10-30T07:23:57;13.00;99.90
8109;DHT22;4097;47.812;12.374;2022-10-30T07:26:24;13.10;99.90
8109;DHT22;4097;47.812;12.374;2022-10-30T07:28:54;13.10;99.90
8109;DHT22;4097;47.812;12.374;2022-10-30T07:31:21;13.20;99.90
8109;DHT22;4097;47.812;12.374;2022-10-30T07:33:48;13.20;99.90
8109;DHT22;4097;47.812;12.374;2022-10-30T07:36:15;13.30;99.90
8109;DHT22;4097;47.812;12.374;2022-10-30T07:38:47;13.30;99.90
8109;DHT22;4097;47.812;12.374;2022-10-30T07:41:16;13.40;99.90
8109;DHT22;4097;47.812;12.374;2022-10-30T07:43:44;13.40;99.90
8109;DHT22;4097;47.812;12.374;2022-10-30T07:46:11;13.50;99.90
8109;DHT22;4097;47.812;12.374;2022-10-30T07:48:41;13.60;99.90
8109;DHT22;4097;47.812;12.374;2022-10-30T07:51:09;13.60;99.90
8109;DHT22;4097;47.812;12.374;2022-10-30T07:53:36;13.70;99.90
8109;DHT22;4097;47.812;12.374;2022-10-30T07:56:03;13.80;99.90
8109;DHT22;4097;47.812;12.374;2022-10-30T07:58:43;13.90;99.90
8109;DHT22;4097;47.812;12.374;2022-10-30T08:01:10;13.90;99.90
8109;DHT22;4097;47.812;12.374;2022-10-30T08:03:37;14.00;99.90
8109;DHT22;4097;47.812;12.374;2022-10-30T08:06:05;14.10;99.90
8109;DHT22;4097;47.812;12.374;2022-10-30T08:08:38;14.20;99.90
8109;DHT22;4097;47.812;12.374;2022-10-30T08:11:05;14.30;99.90
8109;DHT22;4097;47.812;12.374;2022-10-30T08:13:32;14.30;99.90
8109;DHT22;4097;47.812;12.374;2022-10-30T08:16:00;14.40;99.90
8109;DHT22;4097;47.812;12.374;2022-10-30T08:18:36;14.40;99.90
8109;DHT22;4097;47.812;12.374;2022-10-30T08:21:06;14.50;99.90
8109;DHT22;4097;47.812;12.374;2022-10-30T08:23:33;14.60;99.90
8109;DHT22;4097;47.812;12.374;2022-10-30T08:26:00;14.70;99.90
8109;DHT22;4097;47.812;12.374;2022-10-30T08:28:33;14.80;99.90
8109;DHT22;4097;47.812;12.374;2022-10-30T08:31:05;14.80;99.90
8109;DHT22;4097;47.812;12.374;2022-10-30T08:33:33;14.80;99.90
8109;DHT22;4097;47.812;12.374;2022-10-30T08:35:59;14.90;99.90
8109;DHT22;4097;47.812;12.374;2022-10-30T08:38:33;15.00;99.90
8109;DHT22;4097;47.812;12.374;2022-10-30T08:41:00;15.00;99.90
8109;DHT22;4097;47.812;12.374;2022-10-30T08:43:28;15.00;99.90
8109;DHT22;4097;47.812;12.374;2022-10-30T08:45:57;15.10;99.90
8109;DHT22;4097;47.812;12.374;2022-10-30T08:48:28;15.20;99.90
8109;DHT22;4097;47.812;12.374;2022-10-30T08:50:57;15.30;99.90
8109;DHT22;4097;47.812;12.374;2022-10-30T08:53:25;15.30;99.90
8109;DHT22;4097;47.812;12.374;2022-10-30T08:55:52;15.40;99.90
8109;DHT22;4097;47.812;12.374;2022-10-30T08:58:22;15.50;99.90
8109;DHT22;4097;47.812;12.374;2022-10-30T09:00:49;15.50;99.90
8109;DHT22;4097;47.812;12.374;2022-10-30T09:03:17;15.60;99.90
8109;DHT22;4097;47.812;12.374;2022-10-30T09:05:45;15.60;99.90
8109;DHT22;4097;47.812;12.374;2022-10-30T09:08:18;15.70;99.90
8109;DHT22;4097;47.812;12.374;2022-10-30T09:10:45;15.80;99.90
8109;DHT22;4097;47.812;12.374;2022-10-30T09:13:12;15.80;99.90
8109;DHT22;4097;47.812;12.374;2022-10-30T09:15:39;15.90;99.90
8109;DHT22;4097;47.812;12.374;2022-10-30T09:18:15;15.90;99.90
8109;DHT22;4097;47.812;12.374;2022-10-30T09:20:42;16.00;99.90
8109;DHT22;4097;47.812;12.374;2022-10-30T09:23:10;16.10;99.90
8109;DHT22;4097;47.812;12.374;2022-10-30T09:25:38;16.20;99.90
8109;DHT22;4097;47.812;12.374;2022-10-30T09:28:08;16.30;99.90
8109;DHT22;4097;47.812;12.374;2022-10-30T09:30:35;16.30;99.90
8109;DHT22;4097;47.812;12.374;2022-10-30T09:33:02;16.40;99.90
8109;DHT22;4097;47.812;12.374;2022-10-30T09:35:29;16.50;99.90
8109;DHT22;4097;47.812;12.374;2022-10-30T09:37:59;16.60;99.90
8109;DHT22;4097;47.812;12.374;2022-10-30T09:40:38;16.70;99.90
8109;DHT22;4097;47.812;12.374;2022-10-30T09:43:20;16.80;99.90
8109;DHT22;4097;47.812;12.374;2022-10-30T09:46:01;16.80;99.90
8109;DHT22;4097;47.812;12.374;2022-10-30T09:48:52;16.90;99.90
8109;DHT22;4097;47.812;12.374;2022-10-30T09:51:41;17.00;99.90
8109;DHT22;4097;47.812;12.374;2022-10-30T09:54:20;17.10;99.90
8109;DHT22;4097;47.812;12.374;2022-10-30T09:57:03;17.20;99.90
8109;DHT22;4097;47.812;12.374;2022-10-30T09:59:39;17.30;99.90
8109;DHT22;4097;47.812;12.374;2022-10-30T10:02:20;17.40;99.90
8109;DHT22;4097;47.812;12.374;2022-10-30T10:04:53;17.50;99.90
8109;DHT22;4097;47.812;12.374;2022-10-30T10:07:27;17.50;99.90
8109;DHT22;4097;47.812;12.374;2022-10-30T10:09:59;17.70;99.90
8109;DHT22;4097;47.812;12.374;2022-10-30T10:12:34;17.80;99.90
8109;DHT22;4097;47.812;12.374;2022-10-30T10:15:09;17.90;99.90
8109;DHT22;4097;47.812;12.374;2022-10-30T10:17:42;18.00;99.90
8109;DHT22;4097;47.812;12.374;2022-10-30T10:20:15;18.10;99.90
8109;DHT22;4097;47.812;12.374;2022-10-30T10:22:47;18.10;99.90
8109;DHT22;4097;47.812;12.374;2022-10-30T10:25:16;18.20;99.90
8109;DHT22;4097;47.812;12.374;2022-10-30T10:28:10;18.30;99.90
8109;DHT22;4097;47.812;12.374;2022-10-30T10:30:46;18.40;99.90
8109;DHT22;4097;47.812;12.374;2022-10-30T10:33:37;18.50;99.90
8109;DHT22;4097;47.812;12.374;2022-10-30T10:36:17;18.60;99.90
8109;DHT22;4097;47.812;12.374;2022-10-30T10:39:07;18.70;99.90
8109;DHT22;4097;47.812;12.374;2022-10-30T10:41:53;18.70;99.90
8109;DHT22;4097;47.812;12.374;2022-10-30T10:44:34;18.80;99.90
8109;DHT22;4097;47.812;12.374;2022-10-30T10:47:24;18.80;99.90
8109;DHT22;4097;47.812;12.374;2022-10-30T10:50:03;18.80;99.90
8109;DHT22;4097;47.812;12.374;2022-10-30T10:52:36;18.90;99.60
8109;DHT22;4097;47.812;12.374;2022-10-30T10:55:09;18.90;99.50
8109;DHT22;4097;47.812;12.374;2022-10-30T10:57:42;18.90;99.60
8109;DHT22;4097;47.812;12.374;2022-10-30T11:00:15;18.90;99.50
8109;DHT22;4097;47.812;12.374;2022-10-30T11:02:46;19.00;98.80
8109;DHT22;4097;47.812;12.374;2022-10-30T11:05:21;18.90;98.60
8109;DHT22;4097;47.812;12.374;2022-10-30T11:07:57;19.00;98.50
8109;DHT22;4097;47.812;12.374;2022-10-30T11:10:25;19.00;98.50
8109;DHT22;4097;47.812;12.374;2022-10-30T11:12:52;19.10;98.30
8109;DHT22;4097;47.812;12.374;2022-10-30T11:15:39;19.10;98.10
8109;DHT22;4097;47.812;12.374;2022-10-30T11:18:13;19.10;98.10
8109;DHT22;4097;47.812;12.374;2022-10-30T11:20:43;19.10;97.30
8109;DHT22;4097;47.812;12.374;2022-10-30T11:23:30;19.20;97.80
8109;DHT22;4097;47.812;12.374;2022-10-30T11:25:57;19.20;97.30
8109;DHT22;4097;47.812;12.374;2022-10-30T11:28:35;19.30;97.40
8109;DHT22;4097;47.812;12.374;2022-10-30T11:31:19;19.30;97.70
8109;DHT22;4097;47.812;12.374;2022-10-30T11:33:49;19.40;97.80
8109;DHT22;4097;47.812;12.374;2022-10-30T11:36:21;19.50;97.70
8109;DHT22;4097;47.812;12.374;2022-10-30T11:39:08;19.50;97.40
8109;DHT22;4097;47.812;12.374;2022-10-30T11:41:38;19.60;97.30
8109;DHT22;4097;47.812;12.374;2022-10-30T11:44:05;19.70;97.20
8109;DHT22;4097;47.812;12.374;2022-10-30T11:46:37;19.80;97.20
8109;DHT22;4097;47.812;12.374;2022-10-30T11:49:23;19.80;97.10
8109;DHT22;4097;47.812;12.374;2022-10-30T11:51:51;19.90;97.10
8109;DHT22;4097;47.812;12.374;2022-10-30T11:54:20;19.90;96.80
8109;DHT22;4097;47.812;12.374;2022-10-30T11:56:53;20.00;96.80
8109;DHT22;4097;47.812;12.374;2022-10-30T11:59:22;20.00;96.20
8109;DHT22;4097;47.812;12.374;2022-10-30T12:02:00;20.00;96.00
8109;DHT22;4097;47.812;12.374;2022-10-30T12:04:31;20.00;95.90
8109;DHT22;4097;47.812;12.374;2022-10-30T12:07:15;20.10;96.00
8109;DHT22;4097;47.812;12.374;2022-10-30T12:09:46;20.20;96.40
8109;DHT22;4097;47.812;12.374;2022-10-30T12:12:21;20.20;96.20
8109;DHT22;4097;47.812;12.374;2022-10-30T12:14:49;20.20;95.70
8109;DHT22;4097;47.812;12.374;2022-10-30T12:17:25;20.30;95.80
8109;DHT22;4097;47.812;12.374;2022-10-30T12:19:53;20.30;95.90
8109;DHT22;4097;47.812;12.374;2022-10-30T12:22:28;20.40;95.90
8109;DHT22;4097;47.812;12.374;2022-10-30T12:24:56;20.50;95.90
8109;DHT22;4097;47.812;12.374;2022-10-30T12:27:32;20.50;95.90
8109;DHT22;4097;47.812;12.374;2022-10-30T12:30:05;20.50;95.90
8109;DHT22;4097;47.812;12.374;2022-10-30T12:32:39;20.50;96.00
8109;DHT22;4097;47.812;12.374;2022-10-30T12:35:15;20.50;96.00
8109;DHT22;4097;47.812;12.374;2022-10-30T12:37:51;20.50;95.80
8109;DHT22;4097;47.812;12.374;2022-10-30T12:40:22;20.50;95.90
8109;DHT22;4097;47.812;12.374;2022-10-30T12:42:57;20.60;95.70
8109;DHT22;4097;47.812;12.374;2022-10-30T12:45:30;20.60;95.80
8109;DHT22;4097;47.812;12.374;2022-10-30T12:48:13;20.60;95.70
8109;DHT22;4097;47.812;12.374;2022-10-30T12:50:47;20.60;95.90
8109;DHT22;4097;47.812;12.374;2022-10-30T12:53:26;20.60;95.90
8109;DHT22;4097;47.812;12.374;2022-10-30T12:55:57;20.60;96.10
8109;DHT22;4097;47.812;12.374;2022-10-30T12:58:35;20.60;96.20
8109;DHT22;4097;47.812;12.374;2022-10-30T13:01:12;20.60;95.70
8109;DHT22;4097;47.812;12.374;2022-10-30T13:03:49;20.70;95.70
8109;DHT22;4097;47.812;12.374;2022-10-30T13:06:19;20.70;95.30
8109;DHT22;4097;47.812;12.374;2022-10-30T13:09:03;20.70;95.20
8109;DHT22;4097;47.812;12.374;2022-10-30T13:11:39;20.70;95.30
8109;DHT22;4097;47.812;12.374;2022-10-30T13:14:13;20.70;95.20
8109;DHT22;4097;47.812;12.374;2022-10-30T13:16:42;20.70;95.40
8109;DHT22;4097;47.812;12.374;2022-10-30T13:19:17;20.70;95.30
8109;DHT22;4097;47.812;12.374;2022-10-30T13:21:51;20.80;95.70
8109;DHT22;4097;47.812;12.374;2022-10-30T13:24:24;20.70;95.50
8109;DHT22;4097;47.812;12.374;2022-10-30T13:27:04;20.80;96.20
8109;DHT22;4097;47.812;12.374;2022-10-30T13:29:36;20.80;95.20
8109;DHT22;4097;47.812;12.374;2022-10-30T13:32:29;20.80;95.60
8109;DHT22;4097;47.812;12.374;2022-10-30T13:35:08;20.90;95.30
8109;DHT22;4097;47.812;12.374;2022-10-30T13:37:44;20.90;95.60
8109;DHT22;4097;47.812;12.374;2022-10-30T13:40:17;20.90;95.60
8109;DHT22;4097;47.812;12.374;2022-10-30T13:43:01;20.90;96.00
8109;DHT22;4097;47.812;12.374;2022-10-30T13:45:46;20.90;96.20
8109;DHT22;4097;47.812;12.374;2022-10-30T13:48:29;20.90;96.30
8109;DHT22;4097;47.812;12.374;2022-10-30T13:51:17;21.00;95.90
8109;DHT22;4097;47.812;12.374;2022-10-30T13:53:56;21.00;96.20
8109;DHT22;4097;47.812;12.374;2022-10-30T13:56:27;21.10;96.50
8109;DHT22;4097;47.812;12.374;2022-10-30T13:59:08;21.10;96.70
8109;DHT22;4097;47.812;12.374;2022-10-30T14:01:41;21.00;96.50
8109;DHT22;4097;47.812;12.374;2022-10-30T14:04:16;21.00;97.00
8109;DHT22;4097;47.812;12.374;2022-10-30T14:07:02;21.00;97.00
8109;DHT22;4097;47.812;12.374;2022-10-30T14:09:39;21.00;97.20
8109;DHT22;4097;47.812;12.374;2022-10-30T14:12:43;21.00;97.10
8109;DHT22;4097;47.812;12.374;2022-10-30T14:15:18;21.00;97.40
8109;DHT22;4097;47.812;12.374;2022-10-30T14:18:19;21.00;97.30
8109;DHT22;4097;47.812;12.374;2022-10-30T14:20:49;21.00;97.60
8109;DHT22;4097;47.812;12.374;2022-10-30T14:23:20;21.00;97.70
8109;DHT22;4097;47.812;12.374;2022-10-30T14:26:20;21.00;98.30
8109;DHT22;4097;47.812;12.374;2022-10-30T14:28:48;21.10;98.20
8109;DHT22;4097;47.812;12.374;2022-10-30T14:31:18;21.10;97.90
8109;DHT22;4097;47.812;12.374;2022-10-30T14:33:49;21.00;98.60
8109;DHT22;4097;47.812;12.374;2022-10-30T14:36:21;21.00;99.30
8109;DHT22;4097;47.812;12.374;2022-10-30T14:38:57;21.00;99.30
8109;DHT22;4097;47.812;12.374;2022-10-30T14:41:36;20.90;99.30
8109;DHT22;4097;47.812;12.374;2022-10-30T14:44:32;20.90;99.10
8109;DHT22;4097;47.812;12.374;2022-10-30T14:47:43;20.80;99.00
8109;DHT22;4097;47.812;12.374;2022-10-30T14:50:17;20.80;99.50
8109;DHT22;4097;47.812;12.374;2022-10-30T14:52:58;20.80;99.90
8109;DHT22;4097;47.812;12.374;2022-10-30T14:55:32;20.70;99.90
8109;DHT22;4097;47.812;12.374;2022-10-30T14:58:22;20.60;99.90
8109;DHT22;4097;47.812;12.374;2022-10-30T15:00:50;20.50;99.90
8109;DHT22;4097;47.812;12.374;2022-10-30T15:03:42;20.40;99.90
8109;DHT22;4097;47.812;12.374;2022-10-30T15:06:21;20.30;99.90
8109;DHT22;4097;47.812;12.374;2022-10-30T15:09:14;20.20;99.90
8109;DHT22;4097;47.812;12.374;2022-10-30T15:11:58;20.20;99.70
8109;DHT22;4097;47.812;12.374;2022-10-30T15:14:29;20.00;99.90
8109;DHT22;4097;47.812;12.374;2022-10-30T15:17:03;20.00;99.90
8109;DHT22;4097;47.812;12.374;2022-10-30T15:19:32;19.90;99.90
8109;DHT22;4097;47.812;12.374;2022-10-30T15:22:00;19.80;99.90
8109;DHT22;4097;47.812;12.374;2022-10-30T15:24:28;19.80;99.90
8109;DHT22;4097;47.812;12.374;2022-10-30T15:27:05;19.70;99.90
8109;DHT22;4097;47.812;12.374;2022-10-30T15:29:34;19.60;99.90
8109;DHT22;4097;47.812;12.374;2022-10-30T15:32:03;19.50;99.90
8109;DHT22;4097;47.812;12.374;2022-10-30T15:34:31;19.40;99.90
8109;DHT22;4097;47.812;12.374;2022-10-30T15:37:10;19.30;99.90
8109;DHT22;4097;47.812;12.374;2022-10-30T15:39:37;19.20;99.90
8109;DHT22;4097;47.812;12.374;2022-10-30T15:42:07;19.10;99.90
8109;DHT22;4097;47.812;12.374;2022-10-30T15:44:35;19.10;99.90
8109;DHT22;4097;47.812;12.374;2022-10-30T15:47:13;19.00;99.90
8109;DHT22;4097;47.812;12.374;2022-10-30T15:49:47;18.90;99.90
8109;DHT22;4097;47.812;12.374;2022-10-30T15:52:17;18.90;99.90
8109;DHT22;4097;47.812;12.374;2022-10-30T15:54:46;18.80;99.90
8109;DHT22;4097;47.812;12.374;2022-10-30T15:57:25;18.70;99.90
8109;DHT22;4097;47.812;12.374;2022-10-30T15:59:55;18.60;99.90
8109;DHT22;4097;47.812;12.374;2022-10-30T16:02:24;18.50;99.90
8109;DHT22;4097;47.812;12.374;2022-10-30T16:04:52;18.50;99.90
8109;DHT22;4097;47.812;12.374;2022-10-30T16:07:26;18.40;99.90
8109;DHT22;4097;47.812;12.374;2022-10-30T16:09:54;18.30;99.90
8109;DHT22;4097;47.812;12.374;2022-10-30T16:12:28;18.10;99.90
8109;DHT22;4097;47.812;12.374;2022-10-30T16:14:59;18.10;99.90
8109;DHT22;4097;47.812;12.374;2022-10-30T16:17:33;18.00;99.90
8109;DHT22;4097;47.812;12.374;2022-10-30T16:20:02;17.90;99.90